Orbital elements of CBERS 1 DEB
| Launched | 13 October 1999 |
| Flight ended | – |
| Launch site | Taiyuan Space Center, PRC |
| Owner | China/Brazil |
| NORAD ID | 30792 |
| Date fetched |
Epoch osculation |
Inc. [°] |
Ecc. | RA asc node [hr] |
Arg Peri. [°] |
Mean anom [°] |
Mean motion [rev/day] |
Abs. mag |
| Date fetched |
Epoch osculation |
Inc. [°] |
Ecc. | RA asc node [hr] |
Arg Peri. [°] |
Mean anom [°] |
Mean motion [rev/day] |
Abs. mag |
| 2026 May 03 17:57 | 2026 Apr 30 07:23:55 | 98.8474 | 0.00077 | 8.6097 | 121.7641 | 3.8998 | 14.37409 | – |
| 2026 May 02 17:57 | 2026 Apr 30 07:23:55 | 98.8474 | 0.00077 | 8.6097 | 121.7641 | 3.8998 | 14.37409 | – |
| 2026 May 01 17:56 | 2026 Apr 30 07:23:55 | 98.8474 | 0.00077 | 8.6097 | 121.7641 | 3.8998 | 14.37409 | – |
| 2026 Apr 30 17:56 | 2026 Apr 30 07:23:55 | 98.8474 | 0.00077 | 8.6097 | 121.7641 | 3.8998 | 14.37409 | – |
| 2026 Apr 29 17:57 | 2026 Apr 24 06:06:17 | 98.8479 | 0.00075 | 8.1945 | 137.3904 | 3.8998 | 14.37409 | – |
| 2026 Apr 28 17:56 | 2026 Apr 24 06:06:17 | 98.8479 | 0.00075 | 8.1945 | 137.3904 | 3.8998 | 14.37409 | – |
| 2026 Apr 27 17:58 | 2026 Apr 24 06:06:17 | 98.8479 | 0.00075 | 8.1945 | 137.3904 | 3.8998 | 14.37409 | – |
| 2026 Apr 26 17:58 | 2026 Apr 24 06:06:17 | 98.8479 | 0.00075 | 8.1945 | 137.3904 | 3.8998 | 14.37409 | – |
| 2026 Apr 25 17:58 | 2026 Apr 24 06:06:17 | 98.8479 | 0.00075 | 8.1945 | 137.3904 | 3.8998 | 14.37409 | – |
| 2026 Apr 24 17:59 | 2026 Apr 24 06:06:17 | 98.8479 | 0.00075 | 8.1945 | 137.3904 | 3.8998 | 14.37409 | – |
| 2026 Apr 23 17:57 | 2026 Apr 19 12:34:19 | 98.8481 | 0.00072 | 7.8701 | 149.9494 | 3.8998 | 14.37409 | – |
| 2026 Apr 22 17:57 | 2026 Apr 19 12:34:19 | 98.8481 | 0.00072 | 7.8701 | 149.9494 | 3.8998 | 14.37409 | – |
| 2026 Apr 21 17:57 | 2026 Apr 19 12:34:19 | 98.8481 | 0.00072 | 7.8701 | 149.9494 | 3.8998 | 14.37409 | – |
| 2026 Apr 20 17:57 | 2026 Apr 19 12:34:19 | 98.8481 | 0.00072 | 7.8701 | 149.9494 | 3.8998 | 14.37409 | – |
| 2026 Apr 19 17:58 | 2026 Apr 19 12:34:19 | 98.8481 | 0.00072 | 7.8701 | 149.9494 | 3.8998 | 14.37409 | – |
| 2026 Apr 18 17:56 | 2026 Apr 12 18:39:21 | 98.8485 | 0.00068 | 7.4074 | 168.8402 | 3.8998 | 14.37409 | – |
| 2026 Apr 16 17:57 | 2026 Apr 12 18:39:21 | 98.8485 | 0.00068 | 7.4074 | 168.8402 | 3.8998 | 14.37409 | – |
| 2026 Apr 14 17:57 | 2026 Apr 12 18:39:21 | 98.8485 | 0.00068 | 7.4074 | 168.8402 | 3.8998 | 14.37409 | – |
| 2026 Apr 13 17:57 | 2026 Apr 12 18:39:21 | 98.8485 | 0.00068 | 7.4074 | 168.8402 | 3.8998 | 14.37409 | – |
| 2026 Apr 12 17:57 | 2026 Apr 08 14:09:15 | 98.8489 | 0.00066 | 7.1202 | 180.9244 | 3.8998 | 14.37409 | – |
| 2026 Apr 11 17:57 | 2026 Apr 08 14:09:15 | 98.8489 | 0.00066 | 7.1202 | 180.9244 | 3.8998 | 14.37409 | – |
| 2026 Apr 10 17:58 | 2026 Apr 08 14:09:15 | 98.8489 | 0.00066 | 7.1202 | 180.9244 | 3.8998 | 14.37409 | – |
| 2026 Apr 09 18:01 | 2026 Apr 08 14:09:15 | 98.8489 | 0.00066 | 7.1202 | 180.9244 | 3.8998 | 14.37409 | – |
| 2026 Apr 08 17:57 | 2026 Apr 08 14:09:15 | 98.8489 | 0.00066 | 7.1202 | 180.9244 | 3.8998 | 14.37409 | – |
| 2026 Apr 07 17:57 | 2026 Apr 02 06:08:49 | 98.8491 | 0.00062 | 6.6858 | 199.8116 | 3.8998 | 14.37409 | – |
| 2026 Apr 06 17:57 | 2026 Apr 02 06:08:49 | 98.8491 | 0.00062 | 6.6858 | 199.8116 | 3.8998 | 14.37409 | – |